createdAt,value
2017-04-05T00:00:09.660Z,19.92
2017-04-05T00:00:38.079Z,19.9
2017-04-05T00:01:06.433Z,19.97
2017-04-05T00:01:35.020Z,19.85
2017-04-05T00:02:03.531Z,19.9
2017-04-05T00:02:32.046Z,19.93
2017-04-05T00:03:00.410Z,20
2017-04-05T00:03:28.946Z,19.92
2017-04-05T00:03:57.275Z,19.97
2017-04-05T00:04:25.663Z,19.98
2017-04-05T00:04:54.098Z,19.98
2017-04-05T00:05:22.607Z,19.97
2017-04-05T00:05:51.160Z,20
2017-04-05T00:06:19.724Z,20.02
2017-04-05T00:06:48.187Z,20.02
2017-04-05T00:07:16.631Z,19.97
2017-04-05T00:07:44.939Z,19.93
2017-04-05T00:08:13.299Z,20.01
2017-04-05T00:08:41.476Z,20
2017-04-05T00:09:09.690Z,19.97
2017-04-05T00:09:37.941Z,20.01
2017-04-05T00:10:06.489Z,19.95
2017-04-05T00:10:34.866Z,19.97
2017-04-05T00:11:02.918Z,19.89
2017-04-05T00:11:31.129Z,19.97
2017-04-05T00:11:59.374Z,19.9
2017-04-05T00:12:28.073Z,19.89
2017-04-05T00:12:56.316Z,19.87
2017-04-05T00:13:24.658Z,19.93
2017-04-05T00:13:53.054Z,19.9
2017-04-05T00:14:21.418Z,19.9
2017-04-05T00:14:49.725Z,19.93
2017-04-05T00:15:18.134Z,19.82
2017-04-05T00:15:46.457Z,19.83
2017-04-05T00:16:14.724Z,19.85
2017-04-05T00:16:43.043Z,19.82
2017-04-05T00:17:11.389Z,19.79
2017-04-05T00:17:39.529Z,19.82
2017-04-05T00:18:07.694Z,19.92
2017-04-05T00:18:35.907Z,19.86
2017-04-05T00:19:04.169Z,19.82
2017-04-05T00:19:32.495Z,19.82
2017-04-05T00:20:00.822Z,19.82
2017-04-05T00:20:28.958Z,19.86
2017-04-05T00:20:57.135Z,19.8
2017-04-05T00:21:25.394Z,19.83
2017-04-05T00:21:53.778Z,19.8
2017-04-05T00:22:21.910Z,19.83
2017-04-05T00:22:50.155Z,19.86
2017-04-05T00:23:18.408Z,19.74
2017-04-05T00:23:46.673Z,19.85
2017-04-05T00:24:15.004Z,19.74
2017-04-05T00:24:43.349Z,19.74
2017-04-05T00:25:12.010Z,19.71
2017-04-05T00:25:40.275Z,19.72
2017-04-05T00:26:08.379Z,19.68
2017-04-05T00:26:36.745Z,19.64
2017-04-05T00:27:04.994Z,19.74
2017-04-05T00:27:33.273Z,19.7
2017-04-05T00:28:01.658Z,19.67
2017-04-05T00:28:30.381Z,19.78
2017-04-05T00:28:58.658Z,19.71
2017-04-05T00:29:26.999Z,19.74
2017-04-05T00:29:55.393Z,19.71
2017-04-05T00:30:23.761Z,19.75
2017-04-05T00:30:52.053Z,19.7
2017-04-05T00:31:20.410Z,19.82
2017-04-05T00:31:49.514Z,19.74
2017-04-05T00:32:17.662Z,19.74
2017-04-05T00:32:46.012Z,19.72
2017-04-05T00:33:14.216Z,19.72
2017-04-05T00:33:42.396Z,19.71
2017-04-05T00:34:10.697Z,19.71
2017-04-05T00:34:38.763Z,19.74
2017-04-05T00:35:06.961Z,19.72
2017-04-05T00:35:35.384Z,19.71
2017-04-05T00:36:03.797Z,19.75
2017-04-05T00:36:31.872Z,19.71
2017-04-05T00:37:00.123Z,19.78
2017-04-05T00:37:28.255Z,19.71
2017-04-05T00:37:56.408Z,19.7
2017-04-05T00:38:24.707Z,19.79
2017-04-05T00:38:53.052Z,19.74
2017-04-05T00:39:20.874Z,19.67
2017-04-05T00:39:49.197Z,19.63
2017-04-05T00:40:17.478Z,19.72
2017-04-05T00:40:45.879Z,19.78
2017-04-05T00:41:14.160Z,19.78
2017-04-05T00:41:42.543Z,19.67
2017-04-05T00:42:10.847Z,19.64
2017-04-05T00:42:39.077Z,19.61
2017-04-05T00:43:07.069Z,19.63
2017-04-05T00:43:35.214Z,19.63
2017-04-05T00:44:03.475Z,19.65
2017-04-05T00:44:32.220Z,19.64
2017-04-05T00:45:00.580Z,19.61
2017-04-05T00:45:28.755Z,19.6
2017-04-05T00:45:57.125Z,19.63
2017-04-05T00:46:25.478Z,19.61
2017-04-05T00:46:53.819Z,19.64
2017-04-05T00:47:21.977Z,19.63
2017-04-05T00:47:50.579Z,19.63
2017-04-05T00:48:18.964Z,19.63
2017-04-05T00:48:47.238Z,19.57
2017-04-05T00:49:15.521Z,19.63
2017-04-05T00:49:43.897Z,19.6
2017-04-05T00:50:12.109Z,19.61
2017-04-05T00:50:40.330Z,19.64
2017-04-05T00:51:08.697Z,19.53
2017-04-05T00:51:36.887Z,19.56
2017-04-05T00:52:04.993Z,19.53
2017-04-05T00:52:33.214Z,19.49
2017-04-05T00:53:01.466Z,19.53
2017-04-05T00:53:29.741Z,19.5
2017-04-05T00:53:57.932Z,19.56
2017-04-05T00:54:26.713Z,19.53
2017-04-05T00:54:55.078Z,19.5
2017-04-05T00:55:23.401Z,19.5
2017-04-05T00:55:51.804Z,19.47
2017-04-05T00:56:20.192Z,19.46
2017-04-05T00:56:48.305Z,19.47
2017-04-05T00:57:16.392Z,19.4
2017-04-05T00:57:44.791Z,19.52
2017-04-05T00:58:12.923Z,19.49
2017-04-05T00:58:40.831Z,19.37
2017-04-05T00:59:09.118Z,19.32
2017-04-05T00:59:37.417Z,19.34
2017-04-05T01:00:05.829Z,19.38
2017-04-05T01:00:34.111Z,19.31
2017-04-05T01:01:02.467Z,19.35
2017-04-05T01:01:30.821Z,19.32
2017-04-05T01:01:59.854Z,19.23
2017-04-05T01:02:28.152Z,19.23
2017-04-05T01:02:56.591Z,19.17
2017-04-05T01:03:25.079Z,19.25
2017-04-05T01:03:53.447Z,19.2
2017-04-05T01:04:21.672Z,19.24
2017-04-05T01:04:49.991Z,19.24
2017-04-05T01:05:18.425Z,19.23
2017-04-05T01:05:46.673Z,19.28
2017-04-05T01:06:14.854Z,19.31
2017-04-05T01:06:43.010Z,19.2
2017-04-05T01:07:11.335Z,19.32
2017-04-05T01:07:39.734Z,19.34
2017-04-05T01:08:08.252Z,19.34
2017-04-05T01:08:36.535Z,19.35
2017-04-05T01:09:04.821Z,19.34
2017-04-05T01:09:33.158Z,19.38
2017-04-05T01:10:01.521Z,19.38
2017-04-05T01:10:29.930Z,19.43
2017-04-05T01:10:58.088Z,19.45
2017-04-05T01:11:26.422Z,19.49
2017-04-05T01:11:54.741Z,19.37
2017-04-05T01:12:22.941Z,19.42
2017-04-05T01:12:51.458Z,19.49
2017-04-05T01:13:19.950Z,19.42
2017-04-05T01:13:48.372Z,19.49
2017-04-05T01:14:16.806Z,19.45
2017-04-05T01:14:44.966Z,19.34
2017-04-05T01:15:13.719Z,19.35
2017-04-05T01:15:41.671Z,19.49
2017-04-05T01:16:09.990Z,19.45
2017-04-05T01:16:38.181Z,19.37
2017-04-05T01:17:06.469Z,19.43
2017-04-05T01:17:34.684Z,19.32
2017-04-05T01:18:02.907Z,19.31
2017-04-05T01:18:31.136Z,19.35
2017-04-05T01:18:59.400Z,19.32
2017-04-05T01:19:27.583Z,19.47
2017-04-05T01:19:55.873Z,19.35
2017-04-05T01:20:24.169Z,19.45
2017-04-05T01:20:52.401Z,19.37
2017-04-05T01:21:20.772Z,19.5
2017-04-05T01:21:49.159Z,19.42
2017-04-05T01:22:17.453Z,19.35
2017-04-05T01:22:45.484Z,19.45
2017-04-05T01:23:13.803Z,19.47
2017-04-05T01:23:42.033Z,19.47
2017-04-05T01:24:10.388Z,19.45
2017-04-05T01:24:38.561Z,19.5
2017-04-05T01:25:06.927Z,19.49
2017-04-05T01:25:35.331Z,19.42
2017-04-05T01:26:03.756Z,19.42
2017-04-05T01:26:32.124Z,19.46
2017-04-05T01:27:00.195Z,19.43
2017-04-05T01:27:28.658Z,19.46
2017-04-05T01:27:57.167Z,19.46
2017-04-05T01:28:25.386Z,19.46
2017-04-05T01:28:53.492Z,19.46
2017-04-05T01:29:21.833Z,19.5
2017-04-05T01:29:50.184Z,19.45
2017-04-05T01:30:18.424Z,19.5
2017-04-05T01:30:46.637Z,19.43
2017-04-05T01:31:14.926Z,19.38
2017-04-05T01:31:43.301Z,19.43
2017-04-05T01:32:11.569Z,19.47
2017-04-05T01:32:40.056Z,19.47
2017-04-05T01:33:08.655Z,19.38
2017-04-05T01:33:37.125Z,19.52
2017-04-05T01:34:05.316Z,19.37
2017-04-05T01:34:33.710Z,19.5
2017-04-05T01:35:02.019Z,19.45
2017-04-05T01:35:30.543Z,19.5
2017-04-05T01:35:58.793Z,19.38
2017-04-05T01:36:27.110Z,19.49
2017-04-05T01:36:55.218Z,19.42
2017-04-05T01:37:23.519Z,19.5
2017-04-05T01:37:51.852Z,19.46
2017-04-05T01:38:20.070Z,19.42
2017-04-05T01:38:48.457Z,19.42
2017-04-05T01:39:16.868Z,19.42
2017-04-05T01:39:45.265Z,19.4
2017-04-05T01:40:13.568Z,19.38
2017-04-05T01:40:41.918Z,19.34
2017-04-05T01:41:10.276Z,19.32
2017-04-05T01:41:38.708Z,19.32
2017-04-05T01:42:07.149Z,19.32
2017-04-05T01:42:35.389Z,19.35
2017-04-05T01:43:03.549Z,19.31
2017-04-05T01:43:31.831Z,19.34
2017-04-05T01:43:59.921Z,19.28
2017-04-05T01:44:28.226Z,19.35
2017-04-05T01:44:56.567Z,19.34
2017-04-05T01:45:24.728Z,19.38
2017-04-05T01:45:53.092Z,19.37
2017-04-05T01:46:21.356Z,19.35
2017-04-05T01:46:49.575Z,19.37
2017-04-05T01:47:17.894Z,19.4
2017-04-05T01:47:46.192Z,19.3
2017-04-05T01:48:14.601Z,19.37
2017-04-05T01:48:42.760Z,19.34
2017-04-05T01:49:10.935Z,19.35
2017-04-05T01:49:39.187Z,19.25
2017-04-05T01:50:07.281Z,19.3
2017-04-05T01:50:36.242Z,19.35
2017-04-05T01:51:04.391Z,19.24
2017-04-05T01:51:32.818Z,19.24
2017-04-05T01:52:01.250Z,19.24
2017-04-05T01:52:29.562Z,19.23
2017-04-05T01:52:57.880Z,19.19
2017-04-05T01:53:26.074Z,19.2
2017-04-05T01:53:54.192Z,19.19
2017-04-05T01:54:22.474Z,19.25
2017-04-05T01:54:50.775Z,19.24
2017-04-05T01:55:19.075Z,19.2
2017-04-05T01:55:47.365Z,19.24
2017-04-05T01:56:15.623Z,19.23
2017-04-05T01:56:43.838Z,19.2
2017-04-05T01:57:12.096Z,19.23
2017-04-05T01:57:40.230Z,19.17
2017-04-05T01:58:08.570Z,19.19
2017-04-05T01:58:36.757Z,19.2
2017-04-05T01:59:05.019Z,19.24
2017-04-05T01:59:33.531Z,19.2
2017-04-05T02:00:01.774Z,19.19
2017-04-05T02:00:29.790Z,19.24
2017-04-05T02:00:58.073Z,19.13
2017-04-05T02:01:26.450Z,19.12
2017-04-05T02:01:54.630Z,19.19
2017-04-05T02:02:22.801Z,19.16
2017-04-05T02:02:50.883Z,19.13
2017-04-05T02:03:19.194Z,19.2
2017-04-05T02:03:47.501Z,19.15
2017-04-05T02:04:15.746Z,19.16
2017-04-05T02:04:43.888Z,19.13
2017-04-05T02:05:12.120Z,19.13
2017-04-05T02:05:40.497Z,19.15
2017-04-05T02:06:08.939Z,19.15
2017-04-05T02:06:36.899Z,19.05
2017-04-05T02:07:05.124Z,19.07
2017-04-05T02:07:33.579Z,19.15
2017-04-05T02:08:01.965Z,19.16
2017-04-05T02:08:30.426Z,19.13
2017-04-05T02:08:58.642Z,19.1
2017-04-05T02:09:26.889Z,19.13
2017-04-05T02:09:55.166Z,19.1
2017-04-05T02:10:23.301Z,19.12
2017-04-05T02:10:51.631Z,19.06
2017-04-05T02:11:19.986Z,19.16
2017-04-05T02:11:48.307Z,19.17
2017-04-05T02:12:16.395Z,19.13
2017-04-05T02:12:44.741Z,19.13
2017-04-05T02:13:12.908Z,19.07
2017-04-05T02:13:41.234Z,19.07
2017-04-05T02:14:09.785Z,19.09
2017-04-05T02:14:38.812Z,19.09
2017-04-05T02:15:06.985Z,19.05
2017-04-05T02:15:35.306Z,19.05
2017-04-05T02:16:03.467Z,19.15
2017-04-05T02:16:31.591Z,19.02
2017-04-05T02:16:59.753Z,19
2017-04-05T02:17:28.112Z,19.05
2017-04-05T02:17:56.205Z,19.16
2017-04-05T02:18:24.304Z,19.16
2017-04-05T02:18:52.744Z,19.07
2017-04-05T02:19:20.972Z,19.13
2017-04-05T02:19:49.165Z,19.17
2017-04-05T02:20:17.387Z,19.19
2017-04-05T02:20:45.535Z,19.1
2017-04-05T02:21:13.849Z,19.15
2017-04-05T02:21:42.263Z,19.16
2017-04-05T02:22:10.691Z,19.17
2017-04-05T02:22:39.017Z,19.2
2017-04-05T02:23:07.068Z,19.2
2017-04-05T02:23:35.175Z,19.19
2017-04-05T02:24:03.254Z,19.23
2017-04-05T02:24:31.401Z,19.23
2017-04-05T02:24:59.542Z,19.24
2017-04-05T02:25:27.874Z,19.23
2017-04-05T02:25:55.980Z,19.23
2017-04-05T02:26:24.025Z,19.27
2017-04-05T02:26:52.151Z,19.2
2017-04-05T02:27:20.432Z,19.2
2017-04-05T02:27:48.540Z,19.32
2017-04-05T02:28:16.748Z,19.23
2017-04-05T02:28:44.968Z,19.24
2017-04-05T02:29:13.257Z,19.25
2017-04-05T02:29:41.617Z,19.2
2017-04-05T02:30:09.756Z,19.23
2017-04-05T02:30:38.153Z,19.25
2017-04-05T02:31:06.511Z,19.23
2017-04-05T02:31:34.852Z,19.2
2017-04-05T02:32:03.126Z,19.23
2017-04-05T02:32:31.335Z,19.24
2017-04-05T02:32:59.526Z,19.19
2017-04-05T02:33:27.744Z,19.24
2017-04-05T02:33:56.072Z,19.23
2017-04-05T02:34:24.179Z,19.23
2017-04-05T02:34:52.196Z,19.23
2017-04-05T02:35:20.393Z,19.25
2017-04-05T02:35:48.581Z,19.23
2017-04-05T02:36:16.884Z,19.23
2017-04-05T02:36:45.217Z,19.24
2017-04-05T02:37:13.318Z,19.2
2017-04-05T02:37:41.785Z,19.16
2017-04-05T02:38:10.317Z,19.19
2017-04-05T02:38:38.589Z,19.17
2017-04-05T02:39:06.904Z,19.06
2017-04-05T02:39:35.077Z,19.12
2017-04-05T02:40:03.279Z,19.09
2017-04-05T02:40:31.350Z,19.17
2017-04-05T02:40:59.655Z,19.1
2017-04-05T02:41:28.188Z,18.99
2017-04-05T02:41:56.415Z,19.07
2017-04-05T02:42:24.544Z,19.05
2017-04-05T02:42:52.593Z,19.1
2017-04-05T02:43:20.985Z,19.15
2017-04-05T02:43:49.052Z,19.1
2017-04-05T02:44:17.038Z,19.19
2017-04-05T02:44:45.211Z,19.07
2017-04-05T02:45:13.331Z,19.12
2017-04-05T02:45:41.646Z,19.1
2017-04-05T02:46:09.650Z,19.05
2017-04-05T02:46:37.888Z,19.12
2017-04-05T02:47:06.029Z,19
2017-04-05T02:47:34.218Z,18.99
2017-04-05T02:48:02.447Z,19.02
2017-04-05T02:48:30.732Z,19.05
2017-04-05T02:48:58.959Z,19.17
2017-04-05T02:49:27.371Z,19.07
2017-04-05T02:49:55.587Z,19.07
2017-04-05T02:50:23.900Z,19.02
2017-04-05T02:50:52.123Z,19.05
2017-04-05T02:51:20.364Z,19.02
2017-04-05T02:51:48.610Z,18.96
2017-04-05T02:52:16.886Z,19
2017-04-05T02:52:45.096Z,18.91
2017-04-05T02:53:13.301Z,18.89
2017-04-05T02:53:41.599Z,18.9
2017-04-05T02:54:09.819Z,18.99
2017-04-05T02:54:38.024Z,18.99
2017-04-05T02:55:06.234Z,18.87
2017-04-05T02:55:34.239Z,18.87
2017-04-05T02:56:02.331Z,18.86
2017-04-05T02:56:30.620Z,18.87
2017-04-05T02:56:58.858Z,18.84
2017-04-05T02:57:26.864Z,18.99
2017-04-05T02:57:55.150Z,18.9
2017-04-05T02:58:23.317Z,18.93
2017-04-05T02:58:51.514Z,18.86
2017-04-05T02:59:20.596Z,18.9
2017-04-05T02:59:49.068Z,18.94
2017-04-05T03:00:17.328Z,18.96
2017-04-05T03:00:45.599Z,18.9
2017-04-05T03:01:13.840Z,18.87
2017-04-05T03:01:41.999Z,18.89
2017-04-05T03:02:10.279Z,18.81
2017-04-05T03:02:38.622Z,18.84
2017-04-05T03:03:06.917Z,18.91
2017-04-05T03:03:35.064Z,18.87
2017-04-05T03:04:03.373Z,18.9
2017-04-05T03:04:31.629Z,18.84
2017-04-05T03:04:59.919Z,18.91
2017-04-05T03:05:28.118Z,18.9
2017-04-05T03:05:56.418Z,18.94
2017-04-05T03:06:24.603Z,18.93
2017-04-05T03:06:53.704Z,18.93
2017-04-05T03:07:22.034Z,18.91
2017-04-05T03:07:50.321Z,18.86
2017-04-05T03:08:18.603Z,18.9
2017-04-05T03:08:46.734Z,18.93
2017-04-05T03:09:15.155Z,19
2017-04-05T03:09:43.423Z,19.05
2017-04-05T03:10:11.484Z,18.89
2017-04-05T03:10:39.965Z,18.87
2017-04-05T03:11:08.152Z,18.91
2017-04-05T03:11:36.291Z,18.94
2017-04-05T03:12:04.343Z,18.89
2017-04-05T03:12:32.627Z,18.82
2017-04-05T03:13:00.886Z,18.9
2017-04-05T03:13:29.101Z,18.87
2017-04-05T03:13:57.691Z,18.86
2017-04-05T03:14:25.991Z,18.9
2017-04-05T03:14:54.270Z,19
2017-04-05T03:15:22.543Z,18.93
2017-04-05T03:15:50.620Z,18.96
2017-04-05T03:16:18.679Z,18.99
2017-04-05T03:16:46.920Z,19
2017-04-05T03:17:15.127Z,18.99
2017-04-05T03:17:43.179Z,18.91
2017-04-05T03:18:11.291Z,18.99
2017-04-05T03:18:39.525Z,18.94
2017-04-05T03:19:07.583Z,18.87
2017-04-05T03:19:35.647Z,18.84
2017-04-05T03:20:03.923Z,18.84
2017-04-05T03:20:32.433Z,18.87
2017-04-05T03:21:00.598Z,18.87
2017-04-05T03:21:28.576Z,18.87
2017-04-05T03:21:56.757Z,18.89
2017-04-05T03:22:25.151Z,18.87
2017-04-05T03:22:53.479Z,18.87
2017-04-05T03:23:21.721Z,18.87
2017-04-05T03:23:50.018Z,18.93
2017-04-05T03:24:18.450Z,18.9
2017-04-05T03:24:46.479Z,18.94
2017-04-05T03:25:14.485Z,18.9
2017-04-05T03:25:42.708Z,18.96
2017-04-05T03:26:10.886Z,18.84
2017-04-05T03:26:39.024Z,18.93
2017-04-05T03:27:07.703Z,18.9
2017-04-05T03:27:35.874Z,18.9
2017-04-05T03:28:04.078Z,18.91
2017-04-05T03:28:32.375Z,18.91
2017-04-05T03:29:01.610Z,18.91
2017-04-05T03:29:29.750Z,18.86
2017-04-05T03:29:58.005Z,18.91
2017-04-05T03:30:26.233Z,18.87
2017-04-05T03:30:54.502Z,18.93
2017-04-05T03:31:22.995Z,18.82
2017-04-05T03:31:51.210Z,18.87
2017-04-05T03:32:19.485Z,18.89
2017-04-05T03:32:47.574Z,18.89
2017-04-05T03:33:15.721Z,18.87
2017-04-05T03:33:43.908Z,18.78
2017-04-05T03:34:12.081Z,18.87
2017-04-05T03:34:40.511Z,18.82
2017-04-05T03:35:08.868Z,18.79
2017-04-05T03:35:37.105Z,18.86
2017-04-05T03:36:05.413Z,18.86
2017-04-05T03:36:33.637Z,18.82
2017-04-05T03:37:01.885Z,18.81
2017-04-05T03:37:29.955Z,18.82
2017-04-05T03:37:58.075Z,18.75
2017-04-05T03:38:26.655Z,18.75
2017-04-05T03:38:54.904Z,18.82
2017-04-05T03:39:22.999Z,18.79
2017-04-05T03:39:51.173Z,18.75
2017-04-05T03:40:19.457Z,18.74
2017-04-05T03:40:47.731Z,18.74
2017-04-05T03:41:15.873Z,18.69
2017-04-05T03:41:44.122Z,18.71
2017-04-05T03:42:12.246Z,18.69
2017-04-05T03:42:40.293Z,18.68
2017-04-05T03:43:08.554Z,18.63
2017-04-05T03:43:36.698Z,18.65
2017-04-05T03:44:05.166Z,18.63
2017-04-05T03:44:33.276Z,18.65
2017-04-05T03:45:02.190Z,18.71
2017-04-05T03:45:30.385Z,18.63
2017-04-05T03:45:58.641Z,18.65
2017-04-05T03:46:26.734Z,18.69
2017-04-05T03:46:54.921Z,18.6
2017-04-05T03:47:23.169Z,18.61
2017-04-05T03:47:51.419Z,18.68
2017-04-05T03:48:19.812Z,18.72
2017-04-05T03:48:48.197Z,18.71
2017-04-05T03:49:16.343Z,18.65
2017-04-05T03:49:44.343Z,18.66
2017-04-05T03:50:12.531Z,18.6
2017-04-05T03:50:40.999Z,18.68
2017-04-05T03:51:09.082Z,18.61
2017-04-05T03:51:37.205Z,18.61
2017-04-05T03:52:06.287Z,18.65
2017-04-05T03:52:35.139Z,18.56
2017-04-05T03:53:03.388Z,18.59
2017-04-05T03:53:31.543Z,18.68
2017-04-05T03:53:59.638Z,18.61
2017-04-05T03:54:27.921Z,18.63
2017-04-05T03:54:55.967Z,18.68
2017-04-05T03:55:24.271Z,18.6
2017-04-05T03:55:52.532Z,18.63
2017-04-05T03:56:20.735Z,18.59
2017-04-05T03:56:49.036Z,18.61
2017-04-05T03:57:17.346Z,18.61
2017-04-05T03:57:45.406Z,18.61
2017-04-05T03:58:13.647Z,18.65
2017-04-05T03:58:41.966Z,18.6
2017-04-05T03:59:10.204Z,18.54
2017-04-05T03:59:38.186Z,18.59
2017-04-05T04:00:06.520Z,18.59
2017-04-05T04:00:34.896Z,18.51
2017-04-05T04:01:03.112Z,18.61
2017-04-05T04:01:31.221Z,18.61
2017-04-05T04:01:59.446Z,18.5
2017-04-05T04:02:27.536Z,18.59
2017-04-05T04:02:55.590Z,18.57
2017-04-05T04:03:23.770Z,18.51
2017-04-05T04:03:51.970Z,18.59
2017-04-05T04:04:20.131Z,18.59
2017-04-05T04:04:48.316Z,18.5
2017-04-05T04:05:16.452Z,18.49
2017-04-05T04:05:44.557Z,18.56
2017-04-05T04:06:12.907Z,18.51
2017-04-05T04:06:41.144Z,18.45
2017-04-05T04:07:10.288Z,18.53
2017-04-05T04:07:38.369Z,18.45
2017-04-05T04:08:06.609Z,18.53
2017-04-05T04:08:34.701Z,18.53
2017-04-05T04:09:02.982Z,18.53
2017-04-05T04:09:31.277Z,18.49
2017-04-05T04:09:59.576Z,18.65
2017-04-05T04:10:27.818Z,18.66
2017-04-05T04:10:55.969Z,18.65
2017-04-05T04:11:24.178Z,18.66
2017-04-05T04:11:52.535Z,18.53
2017-04-05T04:12:20.727Z,18.66
2017-04-05T04:12:48.788Z,18.65
2017-04-05T04:13:17.009Z,18.6
2017-04-05T04:13:45.241Z,18.6
2017-04-05T04:14:13.390Z,18.61
2017-04-05T04:14:41.792Z,18.57
2017-04-05T04:15:09.922Z,18.5
2017-04-05T04:15:37.994Z,18.56
2017-04-05T04:16:06.057Z,18.56
2017-04-05T04:16:34.850Z,18.61
2017-04-05T04:17:03.102Z,18.51
2017-04-05T04:17:31.441Z,18.53
2017-04-05T04:17:59.519Z,18.57
2017-04-05T04:18:27.846Z,18.49
2017-04-05T04:18:56.742Z,18.54
2017-04-05T04:19:25.033Z,18.51
2017-04-05T04:19:53.343Z,18.5
2017-04-05T04:20:21.432Z,18.53
2017-04-05T04:20:49.630Z,18.45
2017-04-05T04:21:17.587Z,18.51
2017-04-05T04:21:45.946Z,18.5
2017-04-05T04:22:14.187Z,18.5
2017-04-05T04:22:42.350Z,18.53
2017-04-05T04:23:10.505Z,18.5
2017-04-05T04:23:38.756Z,18.47
2017-04-05T04:24:07.124Z,18.49
2017-04-05T04:24:35.178Z,18.5
2017-04-05T04:25:03.423Z,18.56
2017-04-05T04:25:31.478Z,18.57
2017-04-05T04:25:59.711Z,18.49
2017-04-05T04:26:27.921Z,18.51
2017-04-05T04:26:56.067Z,18.56
2017-04-05T04:27:24.462Z,18.51
2017-04-05T04:27:52.744Z,18.49
2017-04-05T04:28:20.913Z,18.56
2017-04-05T04:28:49.035Z,18.44
2017-04-05T04:29:17.049Z,18.39
2017-04-05T04:29:45.240Z,18.39
2017-04-05T04:30:13.494Z,18.39
2017-04-05T04:30:41.745Z,18.42
2017-04-05T04:31:10.012Z,18.5
2017-04-05T04:31:38.068Z,18.51
2017-04-05T04:32:06.275Z,18.53
2017-04-05T04:32:34.434Z,18.49
2017-04-05T04:33:02.682Z,18.5
2017-04-05T04:33:30.738Z,18.49
2017-04-05T04:33:58.792Z,18.45
2017-04-05T04:34:26.911Z,18.49
2017-04-05T04:34:55.086Z,18.45
2017-04-05T04:35:23.204Z,18.53
2017-04-05T04:35:51.258Z,18.49
2017-04-05T04:36:19.443Z,18.45
2017-04-05T04:36:47.491Z,18.53
2017-04-05T04:37:15.563Z,18.47
2017-04-05T04:37:43.629Z,18.51
2017-04-05T04:38:11.755Z,18.51
2017-04-05T04:38:39.937Z,18.49
2017-04-05T04:39:08.208Z,18.51
2017-04-05T04:39:36.357Z,18.49
2017-04-05T04:40:04.596Z,18.47
2017-04-05T04:40:32.818Z,18.56
2017-04-05T04:41:01.008Z,18.51
2017-04-05T04:41:29.196Z,18.49
2017-04-05T04:41:57.227Z,18.54
2017-04-05T04:42:25.391Z,18.5
2017-04-05T04:42:53.489Z,18.51
2017-04-05T04:43:21.608Z,18.47
2017-04-05T04:43:49.865Z,18.42
2017-04-05T04:44:18.106Z,18.49
2017-04-05T04:44:46.295Z,18.44
2017-04-05T04:45:14.407Z,18.47
2017-04-05T04:45:42.558Z,18.39
2017-04-05T04:46:10.681Z,18.39
2017-04-05T04:46:38.992Z,18.36
2017-04-05T04:47:07.185Z,18.34
2017-04-05T04:47:35.590Z,18.38
2017-04-05T04:48:03.794Z,18.45
2017-04-05T04:48:31.979Z,18.36
2017-04-05T04:49:00.209Z,18.39
2017-04-05T04:49:28.307Z,18.42
2017-04-05T04:49:56.466Z,18.39
2017-04-05T04:50:24.634Z,18.42
2017-04-05T04:50:52.810Z,18.35
2017-04-05T04:51:21.094Z,18.36
2017-04-05T04:51:49.279Z,18.34
2017-04-05T04:52:17.556Z,18.41
2017-04-05T04:52:45.647Z,18.34
2017-04-05T04:53:13.861Z,18.41
2017-04-05T04:53:42.125Z,18.36
2017-04-05T04:54:10.304Z,18.34
2017-04-05T04:54:38.610Z,18.36
2017-04-05T04:55:06.782Z,18.39
2017-04-05T04:55:34.953Z,18.53
2017-04-05T04:56:03.112Z,18.49
2017-04-05T04:56:31.212Z,18.51
2017-04-05T04:56:59.484Z,18.49
2017-04-05T04:57:27.765Z,18.51
2017-04-05T04:57:56.049Z,18.49
2017-04-05T04:58:24.185Z,18.5
2017-04-05T04:58:52.416Z,18.49
2017-04-05T04:59:20.361Z,18.47
2017-04-05T04:59:48.407Z,18.44
2017-04-05T05:00:16.694Z,18.45
2017-04-05T05:00:44.801Z,18.51
2017-04-05T05:01:12.950Z,18.51
2017-04-05T05:01:41.017Z,18.5
2017-04-05T05:02:09.276Z,18.49
2017-04-05T05:02:37.660Z,18.54
2017-04-05T05:03:05.601Z,18.54
2017-04-05T05:03:33.735Z,18.51
2017-04-05T05:04:01.894Z,18.56
2017-04-05T05:04:30.099Z,18.53
2017-04-05T05:04:58.311Z,18.45
2017-04-05T05:05:26.501Z,18.54
2017-04-05T05:05:54.752Z,18.41
2017-04-05T05:06:22.995Z,18.53
2017-04-05T05:06:51.154Z,18.51
2017-04-05T05:07:19.286Z,18.49
2017-04-05T05:07:47.541Z,18.53
2017-04-05T05:08:15.786Z,18.5
2017-04-05T05:08:44.050Z,18.51
2017-04-05T05:09:12.260Z,18.59
2017-04-05T05:09:40.387Z,18.61
2017-04-05T05:10:08.533Z,18.56
2017-04-05T05:10:36.625Z,18.53
2017-04-05T05:11:04.800Z,18.51
2017-04-05T05:11:33.096Z,18.56
2017-04-05T05:12:01.276Z,18.5
2017-04-05T05:12:29.261Z,18.6
2017-04-05T05:12:57.393Z,18.51
2017-04-05T05:13:26.001Z,18.59
2017-04-05T05:13:54.136Z,18.49
2017-04-05T05:14:22.370Z,18.5
2017-04-05T05:14:50.565Z,18.57
2017-04-05T05:15:18.739Z,18.53
2017-04-05T05:15:46.936Z,18.63
2017-04-05T05:16:15.086Z,18.49
2017-04-05T05:16:43.252Z,18.49
2017-04-05T05:17:11.236Z,18.61
2017-04-05T05:17:39.439Z,18.51
2017-04-05T05:18:07.676Z,18.5
2017-04-05T05:18:35.891Z,18.42
2017-04-05T05:19:04.075Z,18.49
2017-04-05T05:19:32.095Z,18.38
2017-04-05T05:20:00.294Z,18.34
2017-04-05T05:20:28.540Z,18.36
2017-04-05T05:20:56.499Z,18.32
2017-04-05T05:21:24.720Z,18.41
2017-04-05T05:21:52.864Z,18.34
2017-04-05T05:22:20.908Z,18.36
2017-04-05T05:22:49.150Z,18.45
2017-04-05T05:23:17.323Z,18.49
2017-04-05T05:23:45.459Z,18.56
2017-04-05T05:24:13.694Z,18.56
2017-04-05T05:24:41.958Z,18.41
2017-04-05T05:25:10.120Z,18.45
2017-04-05T05:25:38.278Z,18.42
2017-04-05T05:26:06.496Z,18.53
2017-04-05T05:26:34.719Z,18.54
2017-04-05T05:27:02.933Z,18.47
2017-04-05T05:27:31.074Z,18.49
2017-04-05T05:27:59.190Z,18.47
2017-04-05T05:28:27.347Z,18.56
2017-04-05T05:28:55.521Z,18.39
2017-04-05T05:29:23.479Z,18.35
2017-04-05T05:29:51.563Z,18.34
2017-04-05T05:30:19.685Z,18.34
2017-04-05T05:30:47.721Z,18.41
2017-04-05T05:31:15.914Z,18.39
2017-04-05T05:31:43.991Z,18.41
2017-04-05T05:32:12.217Z,18.35
2017-04-05T05:32:40.522Z,18.32
2017-04-05T05:33:08.694Z,18.38
2017-04-05T05:33:36.871Z,18.27
2017-04-05T05:34:04.994Z,18.29
2017-04-05T05:34:33.158Z,18.26
2017-04-05T05:35:01.325Z,18.31
2017-04-05T05:35:29.577Z,18.27
2017-04-05T05:35:57.778Z,18.29
2017-04-05T05:36:25.919Z,18.31
2017-04-05T05:36:54.117Z,18.31
2017-04-05T05:37:22.281Z,18.27
2017-04-05T05:37:50.582Z,18.26
2017-04-05T05:38:18.833Z,18.26
2017-04-05T05:38:46.992Z,18.27
2017-04-05T05:39:14.934Z,18.29
2017-04-05T05:39:43.202Z,18.27
2017-04-05T05:40:11.495Z,18.26
2017-04-05T05:40:39.799Z,18.23
2017-04-05T05:41:07.856Z,18.26
2017-04-05T05:41:35.805Z,18.23
2017-04-05T05:42:04.034Z,18.23
2017-04-05T05:42:32.237Z,18.24
2017-04-05T05:43:00.408Z,18.27
2017-04-05T05:43:29.151Z,18.26
2017-04-05T05:43:57.346Z,18.24
2017-04-05T05:44:25.566Z,18.26
2017-04-05T05:44:53.761Z,18.31
2017-04-05T05:45:22.091Z,18.2
2017-04-05T05:45:50.575Z,18.27
2017-04-05T05:46:18.877Z,18.29
2017-04-05T05:46:47.076Z,18.27
2017-04-05T05:47:15.238Z,18.26
2017-04-05T05:47:43.408Z,18.27
2017-04-05T05:48:11.555Z,18.27
2017-04-05T05:48:39.819Z,18.24
2017-04-05T05:49:07.975Z,18.27
2017-04-05T05:49:36.143Z,18.27
2017-04-05T05:50:04.234Z,18.2
2017-04-05T05:50:32.567Z,18.31
2017-04-05T05:51:00.801Z,18.24
2017-04-05T05:51:29.027Z,18.2
2017-04-05T05:51:57.288Z,18.27
2017-04-05T05:52:25.563Z,18.2
2017-04-05T05:52:53.837Z,18.26
2017-04-05T05:53:22.083Z,18.23
2017-04-05T05:53:50.287Z,18.32
2017-04-05T05:54:18.376Z,18.27
2017-04-05T05:54:46.529Z,18.26
2017-04-05T05:55:14.729Z,18.26
2017-04-05T05:55:43.027Z,18.29
2017-04-05T05:56:11.184Z,18.29
2017-04-05T05:56:39.327Z,18.24
2017-04-05T05:57:07.447Z,18.26
2017-04-05T05:57:35.523Z,18.2
2017-04-05T05:58:03.623Z,18.32
2017-04-05T05:58:31.674Z,18.31
2017-04-05T05:58:59.748Z,18.24
2017-04-05T05:59:27.861Z,18.24
2017-04-05T05:59:56.046Z,18.23
2017-04-05T06:00:24.325Z,18.29
2017-04-05T06:00:52.438Z,18.27
2017-04-05T06:01:20.730Z,18.27
2017-04-05T06:01:48.718Z,18.31
2017-04-05T06:02:17.003Z,18.32
2017-04-05T06:02:45.158Z,18.29
2017-04-05T06:03:13.386Z,18.27
2017-04-05T06:03:41.632Z,18.32
2017-04-05T06:04:09.894Z,18.34
2017-04-05T06:04:37.965Z,18.29
2017-04-05T06:05:06.063Z,18.29
2017-04-05T06:05:34.332Z,18.35